sensor_id;sensor_type;location;lat;lon;timestamp;noise_LAeq;noise_LA_min;noise_LA_max;noise_LA01;noise_LA95
49732;Laerm;43666;51.442;6.778;2023-07-13T00:00:36;38.81;35.66;41.06;;
49732;Laerm;43666;51.442;6.778;2023-07-13T00:03:02;38.79;35.36;41.06;;
49732;Laerm;43666;51.442;6.778;2023-07-13T00:05:29;38.80;36.45;41.06;;
49732;Laerm;43666;51.442;6.778;2023-07-13T00:07:55;38.77;35.36;41.14;;
49732;Laerm;43666;51.442;6.778;2023-07-13T00:10:22;38.79;35.36;41.06;;
49732;Laerm;43666;51.442;6.778;2023-07-13T00:12:48;38.81;35.94;41.26;;
49732;Laerm;43666;51.442;6.778;2023-07-13T00:15:15;38.82;35.94;40.98;;
49732;Laerm;43666;51.442;6.778;2023-07-13T00:17:41;38.81;35.94;40.89;;
49732;Laerm;43666;51.442;6.778;2023-07-13T00:20:19;38.80;35.59;40.89;;
49732;Laerm;43666;51.442;6.778;2023-07-13T00:22:48;38.80;36.20;41.06;;
49732;Laerm;43666;51.442;6.778;2023-07-13T00:25:15;38.80;35.66;40.80;;
49732;Laerm;43666;51.442;6.778;2023-07-13T00:27:44;38.78;35.66;41.14;;
49732;Laerm;43666;51.442;6.778;2023-07-13T00:30:13;38.80;35.66;41.30;;
49732;Laerm;43666;51.442;6.778;2023-07-13T00:32:39;38.79;35.94;40.89;;
49732;Laerm;43666;51.442;6.778;2023-07-13T00:35:04;38.77;35.94;40.71;;
49732;Laerm;43666;51.442;6.778;2023-07-13T00:37:31;38.77;36.20;40.89;;
49732;Laerm;43666;51.442;6.778;2023-07-13T00:39:57;38.75;36.20;40.98;;
49732;Laerm;43666;51.442;6.778;2023-07-13T00:42:23;38.75;35.66;40.98;;
49732;Laerm;43666;51.442;6.778;2023-07-13T00:47:27;38.75;35.94;41.38;;
49732;Laerm;43666;51.442;6.778;2023-07-13T00:49:53;38.71;35.94;40.80;;
49732;Laerm;43666;51.442;6.778;2023-07-13T00:52:22;38.77;36.20;40.80;;
49732;Laerm;43666;51.442;6.778;2023-07-13T00:54:47;38.75;36.20;40.89;;
49732;Laerm;43666;51.442;6.778;2023-07-13T00:57:16;38.74;35.94;40.71;;
49732;Laerm;43666;51.442;6.778;2023-07-13T00:59:44;38.70;35.94;41.06;;
49732;Laerm;43666;51.442;6.778;2023-07-13T01:02:11;38.68;35.86;40.98;;
49732;Laerm;43666;51.442;6.778;2023-07-13T01:04:37;38.65;36.20;40.80;;
49732;Laerm;43666;51.442;6.778;2023-07-13T01:07:04;38.63;35.36;41.06;;
49732;Laerm;43666;51.442;6.778;2023-07-13T01:09:34;38.59;35.66;40.71;;
49732;Laerm;43666;51.442;6.778;2023-07-13T01:12:00;38.57;35.94;40.71;;
49732;Laerm;43666;51.442;6.778;2023-07-13T01:14:26;38.59;35.94;40.98;;
49732;Laerm;43666;51.442;6.778;2023-07-13T01:16:52;38.60;35.94;40.98;;
49732;Laerm;43666;51.442;6.778;2023-07-13T01:21:49;38.56;35.66;40.71;;
49732;Laerm;43666;51.442;6.778;2023-07-13T01:24:15;38.57;35.94;40.80;;
49732;Laerm;43666;51.442;6.778;2023-07-13T01:26:41;38.52;35.36;40.98;;
49732;Laerm;43666;51.442;6.778;2023-07-13T01:29:09;38.55;35.36;40.43;;
49732;Laerm;43666;51.442;6.778;2023-07-13T01:31:38;38.53;35.36;40.71;;
49732;Laerm;43666;51.442;6.778;2023-07-13T01:34:03;38.51;35.04;40.80;;
49732;Laerm;43666;51.442;6.778;2023-07-13T01:36:30;38.52;35.66;40.62;;
49732;Laerm;43666;51.442;6.778;2023-07-13T01:38:56;38.52;35.94;40.53;;
49732;Laerm;43666;51.442;6.778;2023-07-13T01:41:25;38.49;35.94;40.62;;
49732;Laerm;43666;51.442;6.778;2023-07-13T01:43:52;38.48;35.36;40.71;;
49732;Laerm;43666;51.442;6.778;2023-07-13T01:46:17;38.49;35.04;40.80;;
49732;Laerm;43666;51.442;6.778;2023-07-13T01:48:50;38.48;35.36;40.89;;
49732;Laerm;43666;51.442;6.778;2023-07-13T01:51:16;38.40;35.36;40.53;;
49732;Laerm;43666;51.442;6.778;2023-07-13T01:53:42;38.42;35.36;40.71;;
49732;Laerm;43666;51.442;6.778;2023-07-13T01:56:08;38.44;35.36;40.98;;
49732;Laerm;43666;51.442;6.778;2023-07-13T01:58:34;38.41;34.69;40.71;;
49732;Laerm;43666;51.442;6.778;2023-07-13T02:00:59;38.40;35.36;40.53;;
49732;Laerm;43666;51.442;6.778;2023-07-13T02:03:25;38.37;35.66;40.45;;
49732;Laerm;43666;51.442;6.778;2023-07-13T02:05:51;38.35;35.36;40.98;;
49732;Laerm;43666;51.442;6.778;2023-07-13T02:08:17;38.37;34.69;40.43;;
49732;Laerm;43666;51.442;6.778;2023-07-13T02:10:43;38.35;35.04;40.53;;
49732;Laerm;43666;51.442;6.778;2023-07-13T02:13:09;38.34;35.04;40.62;;
49732;Laerm;43666;51.442;6.778;2023-07-13T02:15:38;38.33;35.36;40.53;;
49732;Laerm;43666;51.442;6.778;2023-07-13T02:18:04;38.25;35.36;40.71;;
49732;Laerm;43666;51.442;6.778;2023-07-13T02:20:30;38.28;35.36;40.23;;
49732;Laerm;43666;51.442;6.778;2023-07-13T02:22:56;38.31;35.04;40.53;;
49732;Laerm;43666;51.442;6.778;2023-07-13T02:25:22;38.26;34.69;40.89;;
49732;Laerm;43666;51.442;6.778;2023-07-13T02:27:48;38.29;34.69;40.33;;
49732;Laerm;43666;51.442;6.778;2023-07-13T02:30:14;38.29;34.69;40.43;;
49732;Laerm;43666;51.442;6.778;2023-07-13T02:32:40;38.25;35.66;40.89;;
49732;Laerm;43666;51.442;6.778;2023-07-13T02:35:06;38.28;35.31;40.89;;
49732;Laerm;43666;51.442;6.778;2023-07-13T02:37:32;38.23;34.31;40.43;;
49732;Laerm;43666;51.442;6.778;2023-07-13T02:40:01;38.24;34.69;40.98;;
49732;Laerm;43666;51.442;6.778;2023-07-13T02:42:31;38.24;35.36;40.43;;
49732;Laerm;43666;51.442;6.778;2023-07-13T02:44:58;38.22;35.36;40.62;;
49732;Laerm;43666;51.442;6.778;2023-07-13T02:47:24;38.19;35.04;40.98;;
49732;Laerm;43666;51.442;6.778;2023-07-13T02:49:50;38.15;35.04;40.33;;
49732;Laerm;43666;51.442;6.778;2023-07-13T02:52:16;38.13;35.04;40.23;;
49732;Laerm;43666;51.442;6.778;2023-07-13T02:54:42;38.13;34.69;40.23;;
49732;Laerm;43666;51.442;6.778;2023-07-13T02:57:08;38.10;35.36;40.43;;
49732;Laerm;43666;51.442;6.778;2023-07-13T02:59:34;38.10;35.04;40.62;;
49732;Laerm;43666;51.442;6.778;2023-07-13T03:02:00;38.08;35.04;40.53;;
49732;Laerm;43666;51.442;6.778;2023-07-13T03:04:26;38.05;34.69;40.43;;
49732;Laerm;43666;51.442;6.778;2023-07-13T03:06:53;38.04;35.04;40.71;;
49732;Laerm;43666;51.442;6.778;2023-07-13T03:09:23;38.02;34.69;40.13;;
49732;Laerm;43666;51.442;6.778;2023-07-13T03:11:54;38.04;34.69;40.33;;
49732;Laerm;43666;51.442;6.778;2023-07-13T03:14:21;38.02;34.69;40.62;;
49732;Laerm;43666;51.442;6.778;2023-07-13T03:16:50;38.05;34.69;40.33;;
49732;Laerm;43666;51.442;6.778;2023-07-13T03:19:15;37.99;35.04;40.43;;
49732;Laerm;43666;51.442;6.778;2023-07-13T03:21:41;37.96;35.04;40.53;;
49732;Laerm;43666;51.442;6.778;2023-07-13T03:24:07;38.00;34.69;40.36;;
49732;Laerm;43666;51.442;6.778;2023-07-13T03:26:33;37.98;33.90;40.71;;
49732;Laerm;43666;51.442;6.778;2023-07-13T03:28:59;37.97;34.31;40.71;;
49732;Laerm;43666;51.442;6.778;2023-07-13T03:31:26;38.00;35.04;40.43;;
49732;Laerm;43666;51.442;6.778;2023-07-13T03:33:54;37.99;34.69;40.54;;
49732;Laerm;43666;51.442;6.778;2023-07-13T03:36:21;38.02;34.69;40.53;;
49732;Laerm;43666;51.442;6.778;2023-07-13T03:38:50;38.06;34.69;40.80;;
49732;Laerm;43666;51.442;6.778;2023-07-13T03:41:16;37.96;34.31;40.23;;
49732;Laerm;43666;51.442;6.778;2023-07-13T03:43:42;38.05;35.04;40.62;;
49732;Laerm;43666;51.442;6.778;2023-07-13T03:46:08;37.97;34.69;40.71;;
49732;Laerm;43666;51.442;6.778;2023-07-13T03:48:34;37.98;34.31;40.98;;
49732;Laerm;43666;51.442;6.778;2023-07-13T03:50:59;37.99;34.69;40.62;;
49732;Laerm;43666;51.442;6.778;2023-07-13T03:53:26;37.92;34.69;40.43;;
49732;Laerm;43666;51.442;6.778;2023-07-13T03:55:51;37.91;34.31;40.23;;
49732;Laerm;43666;51.442;6.778;2023-07-13T03:58:28;37.90;34.69;40.23;;
49732;Laerm;43666;51.442;6.778;2023-07-13T04:00:54;37.88;34.69;40.43;;
49732;Laerm;43666;51.442;6.778;2023-07-13T04:03:23;37.89;33.90;40.62;;
49732;Laerm;43666;51.442;6.778;2023-07-13T04:05:49;37.87;34.69;40.23;;
49732;Laerm;43666;51.442;6.778;2023-07-13T04:08:16;37.81;33.44;40.53;;
49732;Laerm;43666;51.442;6.778;2023-07-13T04:10:42;37.86;33.44;40.23;;
49732;Laerm;43666;51.442;6.778;2023-07-13T04:13:08;37.90;34.31;40.23;;
49732;Laerm;43666;51.442;6.778;2023-07-13T04:15:34;37.87;34.69;40.43;;
49732;Laerm;43666;51.442;6.778;2023-07-13T04:18:00;37.89;34.69;40.89;;
49732;Laerm;43666;51.442;6.778;2023-07-13T04:20:25;37.87;34.31;40.53;;
49732;Laerm;43666;51.442;6.778;2023-07-13T04:22:51;37.89;34.31;40.71;;
49732;Laerm;43666;51.442;6.778;2023-07-13T04:25:20;37.92;34.69;40.13;;
49732;Laerm;43666;51.442;6.778;2023-07-13T04:27:46;37.90;34.69;40.71;;
49732;Laerm;43666;51.442;6.778;2023-07-13T04:30:11;37.92;34.31;40.62;;
49732;Laerm;43666;51.442;6.778;2023-07-13T04:32:38;37.92;34.31;40.62;;
49732;Laerm;43666;51.442;6.778;2023-07-13T04:35:04;37.96;32.93;40.23;;
49732;Laerm;43666;51.442;6.778;2023-07-13T04:37:30;37.87;34.69;40.43;;
49732;Laerm;43666;51.442;6.778;2023-07-13T04:39:59;37.94;34.31;40.43;;
49732;Laerm;43666;51.442;6.778;2023-07-13T04:42:24;37.93;34.31;40.43;;
49732;Laerm;43666;51.442;6.778;2023-07-13T04:44:50;37.94;33.90;40.33;;
49732;Laerm;43666;51.442;6.778;2023-07-13T04:47:20;37.93;34.69;40.62;;
49732;Laerm;43666;51.442;6.778;2023-07-13T04:49:46;37.88;34.31;40.53;;
49732;Laerm;43666;51.442;6.778;2023-07-13T04:52:11;37.89;34.69;40.62;;
49732;Laerm;43666;51.442;6.778;2023-07-13T04:54:37;37.88;33.90;40.62;;
49732;Laerm;43666;51.442;6.778;2023-07-13T04:57:03;37.93;35.04;40.43;;
49732;Laerm;43666;51.442;6.778;2023-07-13T04:59:32;37.92;34.31;40.23;;
49732;Laerm;43666;51.442;6.778;2023-07-13T05:01:58;37.91;34.69;40.33;;
49732;Laerm;43666;51.442;6.778;2023-07-13T05:04:24;37.87;33.44;40.80;;
49732;Laerm;43666;51.442;6.778;2023-07-13T05:06:49;37.89;33.90;40.33;;
49732;Laerm;43666;51.442;6.778;2023-07-13T05:09:15;37.88;34.69;40.23;;
49732;Laerm;43666;51.442;6.778;2023-07-13T05:11:42;37.83;34.31;41.38;;
49732;Laerm;43666;51.442;6.778;2023-07-13T05:14:12;37.89;34.31;40.33;;
49732;Laerm;43666;51.442;6.778;2023-07-13T05:16:38;37.86;34.31;40.18;;
49732;Laerm;43666;51.442;6.778;2023-07-13T05:19:03;37.87;34.31;40.43;;
49732;Laerm;43666;51.442;6.778;2023-07-13T05:21:30;37.90;33.90;40.53;;
49732;Laerm;43666;51.442;6.778;2023-07-13T05:23:55;37.83;33.90;40.43;;
49732;Laerm;43666;51.442;6.778;2023-07-13T05:26:21;37.89;33.44;40.23;;
49732;Laerm;43666;51.442;6.778;2023-07-13T05:28:47;37.92;32.58;40.33;;
49732;Laerm;43666;51.442;6.778;2023-07-13T05:31:13;37.91;33.44;40.71;;
49732;Laerm;43666;51.442;6.778;2023-07-13T05:33:39;37.91;32.93;40.53;;
49732;Laerm;43666;51.442;6.778;2023-07-13T05:36:05;37.95;34.31;40.53;;
49732;Laerm;43666;51.442;6.778;2023-07-13T05:38:32;37.94;34.31;40.33;;
49732;Laerm;43666;51.442;6.778;2023-07-13T05:41:01;37.94;33.44;40.71;;
49732;Laerm;43666;51.442;6.778;2023-07-13T05:43:28;37.94;33.90;40.43;;
49732;Laerm;43666;51.442;6.778;2023-07-13T05:45:54;37.92;33.90;40.43;;
49732;Laerm;43666;51.442;6.778;2023-07-13T05:48:20;37.91;34.69;40.33;;
49732;Laerm;43666;51.442;6.778;2023-07-13T05:50:46;37.92;33.90;40.71;;
49732;Laerm;43666;51.442;6.778;2023-07-13T05:53:12;37.94;33.44;41.22;;
49732;Laerm;43666;51.442;6.778;2023-07-13T05:55:42;37.94;33.90;40.53;;
49732;Laerm;43666;51.442;6.778;2023-07-13T05:58:10;37.92;34.31;40.71;;
49732;Laerm;43666;51.442;6.778;2023-07-13T06:00:36;37.86;34.31;40.71;;
49732;Laerm;43666;51.442;6.778;2023-07-13T06:03:02;37.89;33.44;40.43;;
49732;Laerm;43666;51.442;6.778;2023-07-13T06:05:30;37.88;33.44;40.53;;
49732;Laerm;43666;51.442;6.778;2023-07-13T06:07:55;37.91;33.97;40.62;;
49732;Laerm;43666;51.442;6.778;2023-07-13T06:10:22;37.94;34.31;40.33;;
49732;Laerm;43666;51.442;6.778;2023-07-13T06:12:47;37.92;33.44;40.43;;
49732;Laerm;43666;51.442;6.778;2023-07-13T06:15:13;37.96;33.90;40.89;;
49732;Laerm;43666;51.442;6.778;2023-07-13T06:17:39;37.94;33.90;40.53;;
49732;Laerm;43666;51.442;6.778;2023-07-13T06:20:06;38.00;33.44;40.62;;
49732;Laerm;43666;51.442;6.778;2023-07-13T06:22:33;37.96;34.31;40.43;;
49732;Laerm;43666;51.442;6.778;2023-07-13T06:24:58;37.93;34.31;40.53;;
49732;Laerm;43666;51.442;6.778;2023-07-13T06:27:24;37.94;34.69;40.33;;
49732;Laerm;43666;51.442;6.778;2023-07-13T06:29:50;37.96;34.69;40.53;;
49732;Laerm;43666;51.442;6.778;2023-07-13T06:32:16;37.95;34.31;40.89;;
49732;Laerm;43666;51.442;6.778;2023-07-13T06:34:44;37.90;34.31;40.23;;
49732;Laerm;43666;51.442;6.778;2023-07-13T06:37:13;37.99;33.90;40.71;;
49732;Laerm;43666;51.442;6.778;2023-07-13T06:39:40;38.03;35.04;40.53;;
49732;Laerm;43666;51.442;6.778;2023-07-13T06:42:05;38.01;34.31;40.43;;
49732;Laerm;43666;51.442;6.778;2023-07-13T06:44:37;38.00;33.90;40.33;;
49732;Laerm;43666;51.442;6.778;2023-07-13T06:47:05;38.06;34.31;40.80;;
49732;Laerm;43666;51.442;6.778;2023-07-13T06:49:32;38.05;34.69;40.62;;
49732;Laerm;43666;51.442;6.778;2023-07-13T06:51:58;38.05;34.69;40.62;;
49732;Laerm;43666;51.442;6.778;2023-07-13T06:54:24;38.00;34.31;40.62;;
49732;Laerm;43666;51.442;6.778;2023-07-13T06:56:50;38.00;34.69;40.43;;
49732;Laerm;43666;51.442;6.778;2023-07-13T06:59:16;37.99;33.90;40.23;;
49732;Laerm;43666;51.442;6.778;2023-07-13T07:01:42;37.97;34.69;40.23;;
49732;Laerm;43666;51.442;6.778;2023-07-13T07:04:08;37.92;34.69;40.13;;
49732;Laerm;43666;51.442;6.778;2023-07-13T07:06:34;38.01;34.31;40.80;;
49732;Laerm;43666;51.442;6.778;2023-07-13T07:09:00;38.01;33.90;40.62;;
49732;Laerm;43666;51.442;6.778;2023-07-13T07:11:29;37.97;34.69;40.62;;
49732;Laerm;43666;51.442;6.778;2023-07-13T07:13:54;37.97;34.31;40.33;;
49732;Laerm;43666;51.442;6.778;2023-07-13T07:16:20;37.96;34.69;40.23;;
49732;Laerm;43666;51.442;6.778;2023-07-13T07:18:49;37.96;34.69;40.43;;
49732;Laerm;43666;51.442;6.778;2023-07-13T07:21:15;37.99;34.31;40.62;;
49732;Laerm;43666;51.442;6.778;2023-07-13T07:23:42;37.98;34.31;40.53;;
49732;Laerm;43666;51.442;6.778;2023-07-13T07:26:08;37.98;33.90;40.33;;
49732;Laerm;43666;51.442;6.778;2023-07-13T07:28:38;38.01;35.04;40.62;;
49732;Laerm;43666;51.442;6.778;2023-07-13T07:31:04;38.00;34.69;40.33;;
49732;Laerm;43666;51.442;6.778;2023-07-13T07:33:30;38.03;34.31;40.43;;
49732;Laerm;43666;51.442;6.778;2023-07-13T07:35:56;38.06;35.04;40.62;;
49732;Laerm;43666;51.442;6.778;2023-07-13T07:38:22;38.06;35.04;40.62;;
49732;Laerm;43666;51.442;6.778;2023-07-13T07:40:51;38.09;34.31;40.33;;
49732;Laerm;43666;51.442;6.778;2023-07-13T07:43:17;38.08;35.04;40.53;;
49732;Laerm;43666;51.442;6.778;2023-07-13T07:45:44;38.11;34.31;40.33;;
49732;Laerm;43666;51.442;6.778;2023-07-13T07:48:11;38.04;34.69;40.43;;
49732;Laerm;43666;51.442;6.778;2023-07-13T07:50:40;38.06;34.69;40.23;;
49732;Laerm;43666;51.442;6.778;2023-07-13T07:53:06;38.18;35.04;40.53;;
49732;Laerm;43666;51.442;6.778;2023-07-13T07:55:35;38.21;35.36;40.62;;
49732;Laerm;43666;51.442;6.778;2023-07-13T07:58:03;38.17;35.04;40.43;;
49732;Laerm;43666;51.442;6.778;2023-07-13T08:00:49;38.18;34.69;40.98;;
49732;Laerm;43666;51.442;6.778;2023-07-13T08:03:14;38.23;34.69;40.62;;
49732;Laerm;43666;51.442;6.778;2023-07-13T08:05:40;38.25;35.36;40.62;;
49732;Laerm;43666;51.442;6.778;2023-07-13T08:08:06;38.34;35.04;40.62;;
49732;Laerm;43666;51.442;6.778;2023-07-13T08:10:34;38.33;35.04;40.43;;
49732;Laerm;43666;51.442;6.778;2023-07-13T08:13:00;38.28;35.36;40.43;;
49732;Laerm;43666;51.442;6.778;2023-07-13T08:15:25;38.24;35.36;40.62;;
49732;Laerm;43666;51.442;6.778;2023-07-13T08:17:52;38.21;35.04;40.43;;
49732;Laerm;43666;51.442;6.778;2023-07-13T08:20:17;38.18;35.04;40.43;;
49732;Laerm;43666;51.442;6.778;2023-07-13T08:22:43;38.18;35.04;40.62;;
49732;Laerm;43666;51.442;6.778;2023-07-13T08:25:10;38.16;35.04;40.71;;
49732;Laerm;43666;51.442;6.778;2023-07-13T08:27:36;38.22;35.04;40.80;;
49732;Laerm;43666;51.442;6.778;2023-07-13T08:30:02;38.28;35.04;40.53;;
49732;Laerm;43666;51.442;6.778;2023-07-13T08:32:30;38.26;35.04;40.62;;
49732;Laerm;43666;51.442;6.778;2023-07-13T08:34:55;38.28;35.04;40.62;;
49732;Laerm;43666;51.442;6.778;2023-07-13T08:37:24;38.34;35.66;40.53;;
49732;Laerm;43666;51.442;6.778;2023-07-13T08:39:50;38.34;35.04;40.71;;
49732;Laerm;43666;51.442;6.778;2023-07-13T08:47:31;38.44;35.36;40.45;;
49732;Laerm;43666;51.442;6.778;2023-07-13T08:49:59;38.47;35.36;40.62;;
49732;Laerm;43666;51.442;6.778;2023-07-13T08:52:34;38.47;35.66;40.71;;
49732;Laerm;43666;51.442;6.778;2023-07-13T08:55:26;38.53;35.66;40.98;;
49732;Laerm;43666;51.442;6.778;2023-07-13T08:57:56;38.53;35.66;40.89;;
49732;Laerm;43666;51.442;6.778;2023-07-13T09:00:25;38.59;35.66;40.62;;
49732;Laerm;43666;51.442;6.778;2023-07-13T09:03:02;38.59;35.94;41.06;;
49732;Laerm;43666;51.442;6.778;2023-07-13T09:05:29;38.50;35.04;40.89;;
49732;Laerm;43666;51.442;6.778;2023-07-13T09:10:44;38.54;35.66;40.80;;
49732;Laerm;43666;51.442;6.778;2023-07-13T09:15:52;38.58;35.66;40.98;;
49732;Laerm;43666;51.442;6.778;2023-07-13T09:20:58;38.57;35.66;41.46;;
49732;Laerm;43666;51.442;6.778;2023-07-13T09:23:27;38.65;35.94;40.53;;
49732;Laerm;43666;51.442;6.778;2023-07-13T09:25:58;38.64;35.66;41.06;;
49732;Laerm;43666;51.442;6.778;2023-07-13T09:28:26;38.65;35.94;41.06;;
49732;Laerm;43666;51.442;6.778;2023-07-13T09:33:30;38.62;35.94;40.53;;
49732;Laerm;43666;51.442;6.778;2023-07-13T09:35:59;38.66;35.36;40.71;;
49732;Laerm;43666;51.442;6.778;2023-07-13T09:38:27;38.67;36.20;40.89;;
49732;Laerm;43666;51.442;6.778;2023-07-13T09:43:29;38.74;35.66;40.98;;
49732;Laerm;43666;51.442;6.778;2023-07-13T09:45:58;38.66;35.94;40.89;;
49732;Laerm;43666;51.442;6.778;2023-07-13T09:48:25;38.69;35.94;41.06;;
49732;Laerm;43666;51.442;6.778;2023-07-13T09:50:54;38.68;35.94;40.98;;
49732;Laerm;43666;51.442;6.778;2023-07-13T09:53:21;38.63;35.66;40.71;;
49732;Laerm;43666;51.442;6.778;2023-07-13T09:55:48;38.64;36.20;41.06;;
49732;Laerm;43666;51.442;6.778;2023-07-13T09:58:16;38.63;35.04;40.71;;
49732;Laerm;43666;51.442;6.778;2023-07-13T10:00:58;38.69;35.94;40.89;;
49732;Laerm;43666;51.442;6.778;2023-07-13T10:03:32;38.75;35.66;40.80;;
49732;Laerm;43666;51.442;6.778;2023-07-13T10:06:11;38.81;36.34;41.06;;
49732;Laerm;43666;51.442;6.778;2023-07-13T10:08:37;38.87;35.66;40.98;;
49732;Laerm;43666;51.442;6.778;2023-07-13T10:11:10;38.94;36.20;41.22;;
49732;Laerm;43666;51.442;6.778;2023-07-13T10:13:37;39.01;35.94;41.06;;
49732;Laerm;43666;51.442;6.778;2023-07-13T10:16:06;39.01;36.20;41.53;;
49732;Laerm;43666;51.442;6.778;2023-07-13T10:19:15;39.03;36.20;41.14;;
49732;Laerm;43666;51.442;6.778;2023-07-13T10:21:22;39.01;36.45;41.22;;
49732;Laerm;43666;51.442;6.778;2023-07-13T10:23:55;38.97;36.20;41.30;;
49732;Laerm;43666;51.442;6.778;2023-07-13T10:26:25;38.99;36.20;41.06;;
49732;Laerm;43666;51.442;6.778;2023-07-13T10:28:53;38.96;35.59;41.14;;
49732;Laerm;43666;51.442;6.778;2023-07-13T10:31:31;38.96;36.45;41.46;;
49732;Laerm;43666;51.442;6.778;2023-07-13T10:34:10;39.10;36.56;40.98;;
49732;Laerm;43666;51.442;6.778;2023-07-13T10:36:42;39.18;36.69;41.14;;
49732;Laerm;43666;51.442;6.778;2023-07-13T10:39:10;39.21;36.45;41.22;;
49732;Laerm;43666;51.442;6.778;2023-07-13T10:41:39;39.28;36.69;41.30;;
49732;Laerm;43666;51.442;6.778;2023-07-13T10:44:11;39.31;36.69;41.53;;
49732;Laerm;43666;51.442;6.778;2023-07-13T10:47:16;39.39;37.12;41.38;;
49732;Laerm;43666;51.442;6.778;2023-07-13T10:49:44;39.40;37.12;41.46;;
49732;Laerm;43666;51.442;6.778;2023-07-13T10:54:55;39.39;36.91;41.22;;
49732;Laerm;43666;51.442;6.778;2023-07-13T10:57:23;39.37;37.12;41.22;;
49732;Laerm;43666;51.442;6.778;2023-07-13T10:59:49;39.31;36.69;41.82;;
49732;Laerm;43666;51.442;6.778;2023-07-13T11:02:34;39.28;36.20;41.55;;
49732;Laerm;43666;51.442;6.778;2023-07-13T11:05:02;39.37;36.98;41.38;;
49732;Laerm;43666;51.442;6.778;2023-07-13T11:07:52;39.42;36.91;41.22;;
49732;Laerm;43666;51.442;6.778;2023-07-13T11:13:03;39.35;36.69;41.22;;
49732;Laerm;43666;51.442;6.778;2023-07-13T11:15:31;39.43;37.12;41.30;;
49732;Laerm;43666;51.442;6.778;2023-07-13T11:18:00;39.52;37.12;41.22;;
49732;Laerm;43666;51.442;6.778;2023-07-13T11:20:32;39.56;36.91;41.53;;
49732;Laerm;43666;51.442;6.778;2023-07-13T11:23:16;39.59;37.12;41.38;;
49732;Laerm;43666;51.442;6.778;2023-07-13T11:25:43;39.64;37.32;41.61;;
49732;Laerm;43666;51.442;6.778;2023-07-13T11:28:21;39.68;37.32;41.46;;
49732;Laerm;43666;51.442;6.778;2023-07-13T11:33:50;39.74;37.32;41.75;;
49732;Laerm;43666;51.442;6.778;2023-07-13T11:36:21;39.77;37.12;41.75;;
49732;Laerm;43666;51.442;6.778;2023-07-13T11:39:35;39.76;36.91;41.61;;
49732;Laerm;43666;51.442;6.778;2023-07-13T11:41:57;39.70;31.68;41.68;;
49732;Laerm;43666;51.442;6.778;2023-07-13T11:44:33;39.80;35.04;41.96;;
49732;Laerm;43666;51.442;6.778;2023-07-13T11:47:07;39.81;37.32;41.61;;
49732;Laerm;43666;51.442;6.778;2023-07-13T11:49:44;39.78;36.91;41.53;;
49732;Laerm;43666;51.442;6.778;2023-07-13T11:52:13;39.80;36.91;41.68;;
49732;Laerm;43666;51.442;6.778;2023-07-13T11:54:50;39.86;37.52;42.22;;
49732;Laerm;43666;51.442;6.778;2023-07-13T11:57:30;39.87;37.12;41.46;;
49732;Laerm;43666;51.442;6.778;2023-07-13T12:00:03;39.81;37.52;41.68;;
49732;Laerm;43666;51.442;6.778;2023-07-13T12:02:40;39.86;37.32;41.75;;
49732;Laerm;43666;51.442;6.778;2023-07-13T12:05:09;39.87;37.32;41.61;;
49732;Laerm;43666;51.442;6.778;2023-07-13T12:07:38;39.89;36.45;41.68;;
49732;Laerm;43666;51.442;6.778;2023-07-13T12:15:39;39.86;34.69;41.61;;
49732;Laerm;43666;51.442;6.778;2023-07-13T12:18:13;39.87;37.52;41.68;;
49732;Laerm;43666;51.442;6.778;2023-07-13T12:21:01;39.87;37.88;41.75;;
49732;Laerm;43666;51.442;6.778;2023-07-13T12:23:32;39.90;37.88;41.53;;
49732;Laerm;43666;51.442;6.778;2023-07-13T12:26:00;39.87;37.70;41.61;;
49732;Laerm;43666;51.442;6.778;2023-07-13T12:28:36;39.86;37.52;41.75;;
49732;Laerm;43666;51.442;6.778;2023-07-13T12:31:05;39.82;37.32;41.53;;
49732;Laerm;43666;51.442;6.778;2023-07-13T12:33:33;39.78;37.32;41.68;;
49732;Laerm;43666;51.442;6.778;2023-07-13T12:36:00;39.77;37.12;41.82;;
49732;Laerm;43666;51.442;6.778;2023-07-13T12:38:27;39.73;37.12;41.61;;
49732;Laerm;43666;51.442;6.778;2023-07-13T12:40:53;39.71;37.52;41.61;;
49732;Laerm;43666;51.442;6.778;2023-07-13T12:43:30;39.69;36.91;41.53;;
49732;Laerm;43666;51.442;6.778;2023-07-13T12:46:26;39.67;37.12;41.38;;
49732;Laerm;43666;51.442;6.778;2023-07-13T12:48:54;39.64;37.12;41.38;;
49732;Laerm;43666;51.442;6.778;2023-07-13T12:51:27;39.65;36.91;41.38;;
49732;Laerm;43666;51.442;6.778;2023-07-13T12:53:57;39.64;37.12;41.68;;
49732;Laerm;43666;51.442;6.778;2023-07-13T12:56:28;39.63;37.12;41.38;;
49732;Laerm;43666;51.442;6.778;2023-07-13T12:59:08;39.62;37.12;41.30;;
49732;Laerm;43666;51.442;6.778;2023-07-13T13:02:08;39.57;36.45;41.53;;
49732;Laerm;43666;51.442;6.778;2023-07-13T13:04:57;39.35;36.69;41.75;;
49732;Laerm;43666;51.442;6.778;2023-07-13T13:07:45;39.28;36.77;41.38;;
49732;Laerm;43666;51.442;6.778;2023-07-13T13:10:17;39.34;36.45;41.14;;
49732;Laerm;43666;51.442;6.778;2023-07-13T13:12:58;39.36;36.69;41.22;;
49732;Laerm;43666;51.442;6.778;2023-07-13T13:15:31;39.45;36.69;41.61;;
49732;Laerm;43666;51.442;6.778;2023-07-13T13:17:56;39.54;36.91;41.30;;
49732;Laerm;43666;51.442;6.778;2023-07-13T13:20:24;39.62;37.52;41.46;;
49732;Laerm;43666;51.442;6.778;2023-07-13T13:22:56;39.69;37.52;41.61;;
49732;Laerm;43666;51.442;6.778;2023-07-13T13:25:36;39.80;37.52;41.82;;
49732;Laerm;43666;51.442;6.778;2023-07-13T13:28:04;39.83;37.32;41.53;;
49732;Laerm;43666;51.442;6.778;2023-07-13T13:30:33;39.86;37.53;41.61;;
49732;Laerm;43666;51.442;6.778;2023-07-13T13:32:59;39.88;37.32;41.68;;
49732;Laerm;43666;51.442;6.778;2023-07-13T13:35:24;39.89;37.52;41.68;;
49732;Laerm;43666;51.442;6.778;2023-07-13T13:37:53;39.85;37.32;41.46;;
49732;Laerm;43666;51.442;6.778;2023-07-13T13:40:19;39.81;37.52;41.53;;
49732;Laerm;43666;51.442;6.778;2023-07-13T13:42:50;39.80;37.32;41.53;;
49732;Laerm;43666;51.442;6.778;2023-07-13T13:45:18;39.79;37.12;41.89;;
49732;Laerm;43666;51.442;6.778;2023-07-13T13:47:46;39.75;37.32;41.46;;
49732;Laerm;43666;51.442;6.778;2023-07-13T13:50:15;39.77;37.32;41.61;;
49732;Laerm;43666;51.442;6.778;2023-07-13T13:52:41;39.84;37.70;41.75;;
49732;Laerm;43666;51.442;6.778;2023-07-13T13:57:38;39.92;37.32;41.89;;
49732;Laerm;43666;51.442;6.778;2023-07-13T14:00:05;39.86;37.32;42.03;;
49732;Laerm;43666;51.442;6.778;2023-07-13T14:02:31;39.76;37.52;41.53;;
49732;Laerm;43666;51.442;6.778;2023-07-13T14:04:59;39.69;37.32;41.61;;
49732;Laerm;43666;51.442;6.778;2023-07-13T14:07:28;39.65;37.32;41.61;;
49732;Laerm;43666;51.442;6.778;2023-07-13T14:09:56;39.54;37.12;41.30;;
49732;Laerm;43666;51.442;6.778;2023-07-13T14:12:23;39.40;36.45;41.38;;
49732;Laerm;43666;51.442;6.778;2023-07-13T14:14:55;39.33;36.91;41.14;;
49732;Laerm;43666;51.442;6.778;2023-07-13T14:17:24;39.27;36.45;41.22;;
49732;Laerm;43666;51.442;6.778;2023-07-13T14:19:59;39.12;36.69;41.06;;
49732;Laerm;43666;51.442;6.778;2023-07-13T14:22:26;39.08;36.69;40.89;;
49732;Laerm;43666;51.442;6.778;2023-07-13T14:24:53;39.08;36.45;41.14;;
49732;Laerm;43666;51.442;6.778;2023-07-13T14:27:19;39.09;36.69;41.14;;
49732;Laerm;43666;51.442;6.778;2023-07-13T14:29:44;39.08;36.69;40.89;;
49732;Laerm;43666;51.442;6.778;2023-07-13T14:32:11;39.11;36.45;41.06;;